createdAt,value
2023-01-19T00:02:52.294Z,98561.41
2023-01-19T00:06:55.382Z,98569.97
2023-01-19T00:10:58.662Z,98573.50
2023-01-19T00:15:03.835Z,98562.16
2023-01-19T00:19:06.979Z,98559.44
2023-01-19T00:23:10.353Z,98563.84
2023-01-19T00:27:13.269Z,98574.34
2023-01-19T00:31:20.807Z,98578.75
2023-01-19T00:35:24.347Z,98596.03
2023-01-19T00:39:27.263Z,98592.75
2023-01-19T00:43:30.461Z,98590.16
2023-01-19T00:47:34.889Z,98601.47
2023-01-19T00:51:37.800Z,98602.31
2023-01-19T00:55:41.004Z,98597.03
2023-01-19T00:59:44.333Z,98597.63
2023-01-19T01:03:48.724Z,98593.97
2023-01-19T01:07:51.810Z,98588.72
2023-01-19T01:11:54.997Z,98581.81
2023-01-19T01:15:58.892Z,98581.88
2023-01-19T01:20:04.900Z,98569.81
2023-01-19T01:24:08.501Z,98574.19
2023-01-19T01:28:11.945Z,98577.75
2023-01-19T01:32:15.116Z,98570.28
2023-01-19T01:36:21.190Z,98561.97
2023-01-19T01:40:24.062Z,98558.91
2023-01-19T01:44:50.182Z,98568.84
2023-01-19T01:48:59.169Z,98569.16
2023-01-19T01:53:08.232Z,98576.19
2023-01-19T01:57:13.482Z,98571.66
2023-01-19T02:01:34.194Z,98569.75
2023-01-19T02:05:38.409Z,98569.69
2023-01-19T02:10:00.565Z,98580.69
2023-01-19T02:14:06.134Z,98576.09
2023-01-19T02:18:09.281Z,98576.88
2023-01-19T02:22:18.175Z,98570.84
2023-01-19T02:26:25.552Z,98574.19
2023-01-19T02:30:30.049Z,98575.94
2023-01-19T02:34:34.012Z,98582.81
2023-01-19T02:38:38.688Z,98586.09
2023-01-19T02:42:45.698Z,98589.47
2023-01-19T02:46:49.030Z,98587.63
2023-01-19T02:50:54.439Z,98575.47
2023-01-19T02:55:06.265Z,98567.63
2023-01-19T02:59:17.207Z,98568.44
2023-01-19T03:03:31.266Z,98561.75
2023-01-19T03:07:43.881Z,98552.41
2023-01-19T03:11:52.911Z,98564.63
2023-01-19T03:16:01.747Z,98576.03
2023-01-19T03:20:07.285Z,98589.78
2023-01-19T03:24:13.636Z,98590.56
2023-01-19T03:28:21.074Z,98594.75
2023-01-19T03:32:30.543Z,98600.72
2023-01-19T03:36:37.409Z,98601.47
2023-01-19T03:40:42.392Z,98606.72
2023-01-19T03:44:50.800Z,98609.22
2023-01-19T03:48:56.458Z,98607.41
2023-01-19T03:53:06.991Z,98610.88
2023-01-19T03:57:10.215Z,98609.09
2023-01-19T04:01:13.914Z,98614.41
2023-01-19T04:05:19.381Z,98617.00
2023-01-19T04:09:22.247Z,98618.75
2023-01-19T04:13:27.358Z,98619.59
2023-01-19T04:17:30.360Z,98626.41
2023-01-19T04:21:35.535Z,98635.88
2023-01-19T04:25:43.583Z,98649.72
2023-01-19T04:29:46.660Z,98649.00
2023-01-19T04:33:49.872Z,98664.53
2023-01-19T04:38:01.140Z,98653.41
2023-01-19T04:42:06.599Z,98656.69
2023-01-19T04:46:09.722Z,98674.72
2023-01-19T04:50:13.674Z,98674.56
2023-01-19T04:54:18.179Z,98691.00
2023-01-19T04:58:21.179Z,98679.81
2023-01-19T05:02:24.361Z,98675.56
2023-01-19T05:06:27.586Z,98688.47
2023-01-19T05:10:32.185Z,98682.34
2023-01-19T05:14:35.377Z,98690.22
2023-01-19T05:18:38.407Z,98687.50
2023-01-19T05:22:41.865Z,98700.25
2023-01-19T05:26:48.244Z,98716.00
2023-01-19T05:30:51.833Z,98728.84
2023-01-19T05:34:54.450Z,98721.88
2023-01-19T05:39:00.227Z,98714.72
2023-01-19T05:43:05.570Z,98703.69
2023-01-19T05:47:08.865Z,98704.63
2023-01-19T05:51:12.127Z,98715.03
2023-01-19T05:55:16.860Z,98708.13
2023-01-19T05:59:24.317Z,98720.13
2023-01-19T06:03:28.949Z,98728.94
2023-01-19T06:07:32.530Z,98737.59
2023-01-19T06:11:35.414Z,98755.47
2023-01-19T06:15:39.942Z,98762.50
2023-01-19T06:19:43.157Z,98775.44
2023-01-19T06:23:46.657Z,98783.31
2023-01-19T06:27:49.745Z,98794.53
2023-01-19T06:31:54.339Z,98789.44
2023-01-19T06:35:57.684Z,98803.19
2023-01-19T06:40:01.127Z,98815.13
2023-01-19T06:44:04.341Z,98809.91
2023-01-19T06:48:08.721Z,98808.47
2023-01-19T06:52:12.619Z,98816.50
2023-01-19T06:56:15.522Z,98807.09
2023-01-19T07:00:19.623Z,98797.59
2023-01-19T07:04:23.663Z,98801.88
2023-01-19T07:08:26.845Z,98797.28
2023-01-19T07:12:31.781Z,98799.03
2023-01-19T07:16:34.970Z,98785.28
2023-01-19T07:20:40.186Z,98795.69
2023-01-19T07:24:43.181Z,98798.91
2023-01-19T07:28:47.458Z,98794.41
2023-01-19T07:32:51.460Z,98796.06
2023-01-19T07:36:57.418Z,98804.13
2023-01-19T07:41:04.276Z,98819.63
2023-01-19T07:45:08.485Z,98828.97
2023-01-19T07:49:11.952Z,98839.16
2023-01-19T07:53:17.367Z,98862.47
2023-01-19T07:57:21.037Z,98856.31
2023-01-19T08:01:26.644Z,98847.50
2023-01-19T08:05:34.156Z,98850.94
2023-01-19T08:09:38.815Z,98843.00
2023-01-19T08:13:42.073Z,98843.00
2023-01-19T08:17:45.036Z,98842.03
2023-01-19T08:21:48.291Z,98831.31
2023-01-19T08:25:52.976Z,98834.81
2023-01-19T08:29:56.184Z,98822.44
2023-01-19T08:33:59.754Z,98821.28
2023-01-19T08:38:02.911Z,98812.50
2023-01-19T08:42:07.471Z,98821.06
2023-01-19T08:46:10.755Z,98823.75
2023-01-19T08:50:13.972Z,98823.50
2023-01-19T08:54:18.525Z,98839.75
2023-01-19T08:58:23.082Z,98843.03
2023-01-19T09:02:26.142Z,98845.47
2023-01-19T09:06:29.337Z,98848.88
2023-01-19T09:10:36.289Z,98852.16
2023-01-19T09:14:41.022Z,98840.66
2023-01-19T09:18:45.395Z,98845.72
2023-01-19T09:22:49.208Z,98852.63
2023-01-19T09:26:52.327Z,98862.94
2023-01-19T09:30:57.517Z,98866.22
2023-01-19T09:35:00.599Z,98874.81
2023-01-19T09:39:03.376Z,98874.66
2023-01-19T09:43:16.470Z,98863.41
2023-01-19T09:47:25.100Z,98854.69
2023-01-19T09:51:30.370Z,98854.44
2023-01-19T09:55:33.929Z,98851.47
2023-01-19T09:59:39.024Z,98849.66
2023-01-19T10:03:43.523Z,98850.84
2023-01-19T10:08:06.520Z,98847.44
2023-01-19T10:12:19.737Z,98835.38
2023-01-19T10:16:34.043Z,98832.84
2023-01-19T10:20:41.844Z,98823.34
2023-01-19T10:24:45.862Z,98821.56
2023-01-19T10:28:53.041Z,98819.97
2023-01-19T10:32:56.731Z,98810.41
2023-01-19T10:37:06.545Z,98817.16
2023-01-19T10:41:19.561Z,98828.25
2023-01-19T10:45:25.961Z,98820.88
2023-01-19T10:49:31.604Z,98825.69
2023-01-19T10:53:36.316Z,98830.41
2023-01-19T10:57:43.740Z,98828.25
2023-01-19T11:02:04.275Z,98838.34
2023-01-19T11:06:25.322Z,98835.84
2023-01-19T11:10:31.678Z,98830.78
2023-01-19T11:14:34.744Z,98831.78
2023-01-19T11:18:39.657Z,98815.28
2023-01-19T11:22:42.897Z,98808.09
2023-01-19T11:26:49.736Z,98807.75
2023-01-19T11:30:57.181Z,98808.44
2023-01-19T11:35:01.261Z,98796.84
2023-01-19T11:39:23.831Z,98795.84
2023-01-19T11:43:43.503Z,98797.59
2023-01-19T11:47:57.669Z,98806.44
2023-01-19T11:52:06.463Z,98796.91
2023-01-19T11:56:12.905Z,98789.94
2023-01-19T12:00:31.219Z,98783.81
2023-01-19T12:04:42.892Z,98786.19
2023-01-19T12:08:52.276Z,98788.00
2023-01-19T12:12:55.818Z,98791.56
2023-01-19T12:17:15.900Z,98790.63
2023-01-19T12:21:20.764Z,98784.56
2023-01-19T12:25:26.592Z,98779.34
2023-01-19T12:29:35.363Z,98778.53
2023-01-19T12:33:40.448Z,98767.50
2023-01-19T12:37:45.604Z,98776.34
2023-01-19T12:41:49.075Z,98772.38
2023-01-19T12:45:52.677Z,98768.94
2023-01-19T12:50:00.705Z,98774.91
2023-01-19T12:54:08.155Z,98772.06
2023-01-19T12:58:19.074Z,98777.03
2023-01-19T13:02:53.622Z,98770.72
2023-01-19T13:07:19.506Z,98773.41
2023-01-19T13:11:27.090Z,98760.38
2023-01-19T13:15:37.199Z,98765.75
2023-01-19T13:19:50.545Z,98769.28
2023-01-19T13:23:55.994Z,98760.78
2023-01-19T13:28:01.058Z,98767.75
2023-01-19T13:32:10.164Z,98780.09
2023-01-19T13:36:22.884Z,98782.88
2023-01-19T13:40:33.669Z,98795.31
2023-01-19T13:44:44.992Z,98798.84
2023-01-19T13:48:58.635Z,98806.06
2023-01-19T13:53:02.957Z,98811.34
2023-01-19T13:57:05.899Z,98808.06
2023-01-19T14:01:22.760Z,98802.09
2023-01-19T14:05:29.067Z,98797.81
2023-01-19T14:09:32.334Z,98791.00
2023-01-19T14:13:40.311Z,98788.63
2023-01-19T14:17:44.756Z,98801.72
2023-01-19T14:21:47.659Z,98806.19
2023-01-19T14:25:50.796Z,98796.78
2023-01-19T14:29:55.180Z,98790.72
2023-01-19T14:33:59.688Z,98797.75
2023-01-19T14:38:02.673Z,98802.22
2023-01-19T14:42:08.030Z,98797.97
2023-01-19T14:46:19.240Z,98806.88
2023-01-19T14:50:33.718Z,98814.94
2023-01-19T14:54:41.091Z,98827.09
2023-01-19T14:58:44.368Z,98833.22
2023-01-19T15:02:48.541Z,98837.69
2023-01-19T15:06:53.220Z,98838.66
2023-01-19T15:10:57.369Z,98837.00
2023-01-19T15:15:00.422Z,98831.00
2023-01-19T15:19:03.123Z,98839.66
2023-01-19T15:23:07.608Z,98835.31
2023-01-19T15:27:13.541Z,98840.56
2023-01-19T15:31:18.512Z,98840.66
2023-01-19T15:35:23.303Z,98849.22
2023-01-19T15:39:27.795Z,98849.41
2023-01-19T15:43:31.024Z,98852.06
2023-01-19T15:47:35.650Z,98841.59
2023-01-19T15:51:38.602Z,98842.44
2023-01-19T15:55:43.524Z,98848.38
2023-01-19T15:59:46.789Z,98851.00
2023-01-19T16:03:50.550Z,98842.34
2023-01-19T16:07:54.026Z,98848.47
2023-01-19T16:12:00.313Z,98862.41
2023-01-19T16:16:04.808Z,98855.44
2023-01-19T16:20:09.599Z,98850.31
2023-01-19T16:24:15.532Z,98856.41
2023-01-19T16:28:20.337Z,98862.47
2023-01-19T16:32:23.293Z,98876.34
2023-01-19T16:36:28.329Z,98868.63
2023-01-19T16:40:31.612Z,98873.72
2023-01-19T16:44:36.277Z,98871.13
2023-01-19T16:48:39.284Z,98864.16
2023-01-19T16:52:42.520Z,98866.75
2023-01-19T16:56:47.708Z,98864.22
2023-01-19T17:00:53.204Z,98862.47
2023-01-19T17:04:56.487Z,98865.91
2023-01-19T17:09:01.728Z,98852.91
2023-01-19T17:13:05.467Z,98856.41
2023-01-19T17:17:09.610Z,98855.59
2023-01-19T17:21:13.031Z,98855.72
2023-01-19T17:25:17.141Z,98847.91
2023-01-19T17:29:20.852Z,98854.81
2023-01-19T17:33:26.024Z,98854.81
2023-01-19T17:37:28.801Z,98853.97
2023-01-19T17:41:35.208Z,98844.50
2023-01-19T17:45:38.960Z,98844.50
2023-01-19T17:49:44.071Z,98853.13
2023-01-19T17:53:47.157Z,98852.31
2023-01-19T17:57:50.338Z,98845.31
2023-01-19T18:01:53.386Z,98844.56
2023-01-19T18:05:58.311Z,98851.47
2023-01-19T18:10:01.324Z,98849.78
2023-01-19T18:14:04.413Z,98854.13
2023-01-19T18:18:07.635Z,98852.38
2023-01-19T18:22:12.582Z,98849.78
2023-01-19T18:26:18.931Z,98847.22
2023-01-19T18:30:22.685Z,98853.28
2023-01-19T18:34:26.017Z,98851.63
2023-01-19T18:38:31.744Z,98842.13
2023-01-19T18:42:35.838Z,98845.47
2023-01-19T18:46:39.054Z,98849.78
2023-01-19T18:50:43.092Z,98845.47
2023-01-19T18:54:47.049Z,98854.06
2023-01-19T18:58:50.012Z,98856.88
2023-01-19T19:02:53.508Z,98856.94
2023-01-19T19:06:56.825Z,98861.41
2023-01-19T19:11:01.561Z,98873.63
2023-01-19T19:15:05.821Z,98868.44
2023-01-19T19:19:12.121Z,98867.63
2023-01-19T19:23:15.780Z,98878.94
2023-01-19T19:27:20.250Z,98878.94
2023-01-19T19:31:26.277Z,98885.94
2023-01-19T19:35:29.420Z,98884.34
2023-01-19T19:39:32.569Z,98882.88
2023-01-19T19:43:37.706Z,98891.69
2023-01-19T19:47:40.944Z,98896.03
2023-01-19T19:51:44.487Z,98895.19
2023-01-19T19:55:58.350Z,98897.25
2023-01-19T20:00:05.400Z,98902.44
2023-01-19T20:04:10.223Z,98904.31
2023-01-19T20:08:13.553Z,98902.81
2023-01-19T20:12:16.873Z,98913.22
2023-01-19T20:16:24.433Z,98920.06
2023-01-19T20:20:27.231Z,98915.75
2023-01-19T20:24:30.850Z,98912.31
2023-01-19T20:28:34.378Z,98921.16
2023-01-19T20:32:40.699Z,98926.69
2023-01-19T20:36:47.011Z,98914.63
2023-01-19T20:40:52.075Z,98919.06
2023-01-19T20:44:56.748Z,98925.38
2023-01-19T20:49:02.789Z,98921.25
2023-01-19T20:53:05.990Z,98921.38
2023-01-19T20:57:09.187Z,98936.28
2023-01-19T21:01:14.353Z,98934.75
2023-01-19T21:05:19.205Z,98935.78
2023-01-19T21:09:23.143Z,98941.06
2023-01-19T21:13:26.400Z,98948.09
2023-01-19T21:17:29.592Z,98961.06
2023-01-19T21:21:33.913Z,98959.41
2023-01-19T21:25:38.555Z,98968.97
2023-01-19T21:29:41.991Z,98983.72
2023-01-19T21:33:45.528Z,98987.22
2023-01-19T21:37:50.996Z,99004.56
2023-01-19T21:41:54.148Z,99000.34
2023-01-19T21:45:57.265Z,99003.78
2023-01-19T21:50:05.674Z,99006.41
2023-01-19T21:54:12.019Z,99005.47
2023-01-19T21:58:16.632Z,99013.16
2023-01-19T22:02:33.324Z,99018.47
2023-01-19T22:06:45.970Z,99022.75
2023-01-19T22:10:50.250Z,99022.84
2023-01-19T22:14:53.467Z,99020.25
2023-01-19T22:18:59.719Z,99026.47
2023-01-19T22:23:03.033Z,99033.47
2023-01-19T22:27:09.296Z,99034.47
2023-01-19T22:31:14.362Z,99031.16
2023-01-19T22:35:19.889Z,99036.50
2023-01-19T22:39:22.881Z,99045.47
2023-01-19T22:43:27.768Z,99048.31
2023-01-19T22:47:30.968Z,99043.28
2023-01-19T22:51:34.639Z,99051.09
2023-01-19T22:55:37.857Z,99050.31
2023-01-19T22:59:43.937Z,99065.09
2023-01-19T23:03:47.455Z,99055.69
2023-01-19T23:07:50.632Z,99067.97
2023-01-19T23:11:53.893Z,99066.34
2023-01-19T23:15:58.732Z,99087.19
2023-01-19T23:20:01.753Z,99082.84
2023-01-19T23:24:06.217Z,99087.97
2023-01-19T23:28:10.084Z,99087.13
2023-01-19T23:32:15.369Z,99092.38
2023-01-19T23:36:19.175Z,99101.91
2023-01-19T23:40:22.023Z,99108.81
2023-01-19T23:44:25.142Z,99114.03
2023-01-19T23:48:30.108Z,99123.66
2023-01-19T23:52:33.994Z,99134.06
2023-01-19T23:56:39.986Z,99140.16
